sensor_id;sensor_type;location;lat;lon;timestamp;P1;durP1;ratioP1;P2;durP2;ratioP2
22673;SDS011;11504;43.334;21.918;2023-08-17T00:01:09;30.0;;;28.0;;
22673;SDS011;11504;43.334;21.918;2023-08-17T00:05:45;32.0;;;29.0;;
22673;SDS011;11504;43.334;21.918;2023-08-17T00:10:21;32.0;;;29.0;;
22673;SDS011;11504;43.334;21.918;2023-08-17T00:14:58;33.0;;;31.0;;
22673;SDS011;11504;43.334;21.918;2023-08-17T00:19:34;33.0;;;31.0;;
22673;SDS011;11504;43.334;21.918;2023-08-17T00:24:11;34.0;;;33.0;;
22673;SDS011;11504;43.334;21.918;2023-08-17T00:28:47;34.0;;;33.0;;
22673;SDS011;11504;43.334;21.918;2023-08-17T00:33:23;34.0;;;33.0;;
22673;SDS011;11504;43.334;21.918;2023-08-17T00:38:00;34.0;;;33.0;;
22673;SDS011;11504;43.334;21.918;2023-08-17T00:42:36;34.0;;;33.0;;
22673;SDS011;11504;43.334;21.918;2023-08-17T00:47:14;34.0;;;33.0;;
22673;SDS011;11504;43.334;21.918;2023-08-17T00:51:51;34.0;;;33.0;;
22673;SDS011;11504;43.334;21.918;2023-08-17T00:56:29;34.0;;;32.0;;
22673;SDS011;11504;43.334;21.918;2023-08-17T01:01:06;34.0;;;32.0;;
22673;SDS011;11504;43.334;21.918;2023-08-17T01:05:44;34.0;;;31.0;;
22673;SDS011;11504;43.334;21.918;2023-08-17T01:10:21;34.0;;;31.0;;
22673;SDS011;11504;43.334;21.918;2023-08-17T01:15:22;36.0;;;32.0;;
22673;SDS011;11504;43.334;21.918;2023-08-17T01:20:24;36.0;;;32.0;;
22673;SDS011;11504;43.334;21.918;2023-08-17T01:25:08;37.0;;;33.0;;
22673;SDS011;11504;43.334;21.918;2023-08-17T01:29:44;37.0;;;33.0;;
22673;SDS011;11504;43.334;21.918;2023-08-17T01:34:25;36.0;;;33.0;;
22673;SDS011;11504;43.334;21.918;2023-08-17T01:39:17;36.0;;;33.0;;
22673;SDS011;11504;43.334;21.918;2023-08-17T01:44:10;35.0;;;33.0;;
22673;SDS011;11504;43.334;21.918;2023-08-17T01:48:47;35.0;;;33.0;;
22673;SDS011;11504;43.334;21.918;2023-08-17T01:53:24;36.0;;;34.0;;
22673;SDS011;11504;43.334;21.918;2023-08-17T01:58:01;36.0;;;34.0;;
22673;SDS011;11504;43.334;21.918;2023-08-17T02:02:38;36.0;;;34.0;;
22673;SDS011;11504;43.334;21.918;2023-08-17T02:07:15;36.0;;;34.0;;
22673;SDS011;11504;43.334;21.918;2023-08-17T02:11:51;36.0;;;34.0;;
22673;SDS011;11504;43.334;21.918;2023-08-17T02:16:28;36.0;;;33.0;;
22673;SDS011;11504;43.334;21.918;2023-08-17T02:21:04;36.0;;;33.0;;
22673;SDS011;11504;43.334;21.918;2023-08-17T02:25:41;35.0;;;32.0;;
22673;SDS011;11504;43.334;21.918;2023-08-17T02:30:17;35.0;;;32.0;;
22673;SDS011;11504;43.334;21.918;2023-08-17T02:34:55;36.0;;;32.0;;
22673;SDS011;11504;43.334;21.918;2023-08-17T02:39:31;36.0;;;32.0;;
22673;SDS011;11504;43.334;21.918;2023-08-17T02:44:07;37.0;;;33.0;;
22673;SDS011;11504;43.334;21.918;2023-08-17T02:48:44;37.0;;;33.0;;
22673;SDS011;11504;43.334;21.918;2023-08-17T02:53:20;35.0;;;31.0;;
22673;SDS011;11504;43.334;21.918;2023-08-17T02:57:56;35.0;;;31.0;;
22673;SDS011;11504;43.334;21.918;2023-08-17T03:02:33;35.0;;;31.0;;
22673;SDS011;11504;43.334;21.918;2023-08-17T03:07:09;33.0;;;29.0;;
22673;SDS011;11504;43.334;21.918;2023-08-17T03:11:46;33.0;;;29.0;;
22673;SDS011;11504;43.334;21.918;2023-08-17T03:16:22;34.0;;;30.0;;
22673;SDS011;11504;43.334;21.918;2023-08-17T03:20:59;34.0;;;30.0;;
22673;SDS011;11504;43.334;21.918;2023-08-17T03:25:36;35.0;;;32.0;;
22673;SDS011;11504;43.334;21.918;2023-08-17T03:30:12;35.0;;;32.0;;
22673;SDS011;11504;43.334;21.918;2023-08-17T03:34:49;34.0;;;31.0;;
22673;SDS011;11504;43.334;21.918;2023-08-17T03:39:25;34.0;;;31.0;;
22673;SDS011;11504;43.334;21.918;2023-08-17T03:44:02;34.0;;;30.0;;
22673;SDS011;11504;43.334;21.918;2023-08-17T03:48:41;34.0;;;30.0;;
22673;SDS011;11504;43.334;21.918;2023-08-17T03:53:17;34.0;;;30.0;;
22673;SDS011;11504;43.334;21.918;2023-08-17T03:57:54;34.0;;;30.0;;
22673;SDS011;11504;43.334;21.918;2023-08-17T04:02:31;34.0;;;30.0;;
22673;SDS011;11504;43.334;21.918;2023-08-17T04:07:08;33.0;;;30.0;;
22673;SDS011;11504;43.334;21.918;2023-08-17T04:11:44;33.0;;;30.0;;
22673;SDS011;11504;43.334;21.918;2023-08-17T04:16:21;34.0;;;31.0;;
22673;SDS011;11504;43.334;21.918;2023-08-17T04:20:57;34.0;;;31.0;;
22673;SDS011;11504;43.334;21.918;2023-08-17T04:25:33;34.0;;;32.0;;
22673;SDS011;11504;43.334;21.918;2023-08-17T04:30:11;34.0;;;32.0;;
22673;SDS011;11504;43.334;21.918;2023-08-17T04:34:48;30.0;;;29.0;;
22673;SDS011;11504;43.334;21.918;2023-08-17T04:39:24;30.0;;;29.0;;
22673;SDS011;11504;43.334;21.918;2023-08-17T04:44:01;27.0;;;26.0;;
22673;SDS011;11504;43.334;21.918;2023-08-17T04:48:38;27.0;;;26.0;;
22673;SDS011;11504;43.334;21.918;2023-08-17T04:53:14;28.0;;;26.0;;
22673;SDS011;11504;43.334;21.918;2023-08-17T04:57:51;28.0;;;26.0;;
22673;SDS011;11504;43.334;21.918;2023-08-17T05:02:28;28.0;;;26.0;;
22673;SDS011;11504;43.334;21.918;2023-08-17T05:07:05;28.0;;;26.0;;
22673;SDS011;11504;43.334;21.918;2023-08-17T05:11:41;28.0;;;26.0;;
22673;SDS011;11504;43.334;21.918;2023-08-17T05:16:18;27.0;;;26.0;;
22673;SDS011;11504;43.334;21.918;2023-08-17T05:20:55;27.0;;;26.0;;
22673;SDS011;11504;43.334;21.918;2023-08-17T05:25:31;26.0;;;25.0;;
22673;SDS011;11504;43.334;21.918;2023-08-17T05:30:08;26.0;;;25.0;;
22673;SDS011;11504;43.334;21.918;2023-08-17T05:34:47;24.0;;;24.0;;
22673;SDS011;11504;43.334;21.918;2023-08-17T05:39:23;24.0;;;24.0;;
22673;SDS011;11504;43.334;21.918;2023-08-17T05:44:00;23.0;;;22.0;;
22673;SDS011;11504;43.334;21.918;2023-08-17T05:48:36;23.0;;;22.0;;
22673;SDS011;11504;43.334;21.918;2023-08-17T05:53:13;24.0;;;22.0;;
22673;SDS011;11504;43.334;21.918;2023-08-17T05:57:49;24.0;;;22.0;;
22673;SDS011;11504;43.334;21.918;2023-08-17T06:02:26;24.0;;;22.0;;
22673;SDS011;11504;43.334;21.918;2023-08-17T06:07:02;24.0;;;21.0;;
22673;SDS011;11504;43.334;21.918;2023-08-17T06:11:39;24.0;;;21.0;;
22673;SDS011;11504;43.334;21.918;2023-08-17T06:16:16;22.0;;;20.0;;
22673;SDS011;11504;43.334;21.918;2023-08-17T06:20:53;22.0;;;20.0;;
22673;SDS011;11504;43.334;21.918;2023-08-17T06:25:29;20.0;;;19.0;;
22673;SDS011;11504;43.334;21.918;2023-08-17T06:30:07;20.0;;;19.0;;
22673;SDS011;11504;43.334;21.918;2023-08-17T06:34:48;20.0;;;19.0;;
22673;SDS011;11504;43.334;21.918;2023-08-17T06:39:25;20.0;;;19.0;;
22673;SDS011;11504;43.334;21.918;2023-08-17T06:44:03;20.0;;;19.0;;
22673;SDS011;11504;43.334;21.918;2023-08-17T06:48:42;20.0;;;19.0;;
22673;SDS011;11504;43.334;21.918;2023-08-17T06:53:19;20.0;;;19.0;;
22673;SDS011;11504;43.334;21.918;2023-08-17T06:57:57;20.0;;;19.0;;
22673;SDS011;11504;43.334;21.918;2023-08-17T07:02:34;20.0;;;19.0;;
22673;SDS011;11504;43.334;21.918;2023-08-17T07:07:11;20.0;;;19.0;;
22673;SDS011;11504;43.334;21.918;2023-08-17T07:11:47;20.0;;;19.0;;
22673;SDS011;11504;43.334;21.918;2023-08-17T07:16:23;20.0;;;19.0;;
22673;SDS011;11504;43.334;21.918;2023-08-17T07:21:00;20.0;;;19.0;;
22673;SDS011;11504;43.334;21.918;2023-08-17T07:25:36;20.0;;;19.0;;
22673;SDS011;11504;43.334;21.918;2023-08-17T07:30:13;20.0;;;19.0;;
22673;SDS011;11504;43.334;21.918;2023-08-17T07:34:49;22.0;;;20.0;;
22673;SDS011;11504;43.334;21.918;2023-08-17T07:39:26;22.0;;;20.0;;
22673;SDS011;11504;43.334;21.918;2023-08-17T07:44:03;23.0;;;22.0;;
22673;SDS011;11504;43.334;21.918;2023-08-17T07:48:41;23.0;;;22.0;;
22673;SDS011;11504;43.334;21.918;2023-08-17T07:53:18;24.0;;;22.0;;
22673;SDS011;11504;43.334;21.918;2023-08-17T07:57:55;24.0;;;22.0;;
22673;SDS011;11504;43.334;21.918;2023-08-17T08:02:32;24.0;;;22.0;;
22673;SDS011;11504;43.334;21.918;2023-08-17T08:07:09;24.0;;;22.0;;
22673;SDS011;11504;43.334;21.918;2023-08-17T08:11:46;24.0;;;22.0;;
22673;SDS011;11504;43.334;21.918;2023-08-17T08:16:23;23.0;;;22.0;;
22673;SDS011;11504;43.334;21.918;2023-08-17T08:20:59;23.0;;;22.0;;
22673;SDS011;11504;43.334;21.918;2023-08-17T08:25:36;22.0;;;21.0;;
22673;SDS011;11504;43.334;21.918;2023-08-17T08:30:12;22.0;;;21.0;;
22673;SDS011;11504;43.334;21.918;2023-08-17T08:34:49;22.0;;;21.0;;
22673;SDS011;11504;43.334;21.918;2023-08-17T08:39:26;22.0;;;21.0;;
22673;SDS011;11504;43.334;21.918;2023-08-17T08:44:03;22.0;;;21.0;;
22673;SDS011;11504;43.334;21.918;2023-08-17T08:48:42;22.0;;;21.0;;
22673;SDS011;11504;43.334;21.918;2023-08-17T08:53:37;20.0;;;20.0;;
22673;SDS011;11504;43.334;21.918;2023-08-17T08:58:25;20.0;;;20.0;;
22673;SDS011;11504;43.334;21.918;2023-08-17T09:03:09;19.0;;;18.0;;
22673;SDS011;11504;43.334;21.918;2023-08-17T09:07:49;19.0;;;18.0;;
22673;SDS011;11504;43.334;21.918;2023-08-17T09:12:30;19.0;;;18.0;;
22673;SDS011;11504;43.334;21.918;2023-08-17T09:17:08;20.0;;;18.0;;
22673;SDS011;11504;43.334;21.918;2023-08-17T09:21:45;20.0;;;18.0;;
22673;SDS011;11504;43.334;21.918;2023-08-17T09:26:22;20.0;;;19.0;;
22673;SDS011;11504;43.334;21.918;2023-08-17T09:31:02;20.0;;;19.0;;
22673;SDS011;11504;43.334;21.918;2023-08-17T09:35:41;19.0;;;18.0;;
22673;SDS011;11504;43.334;21.918;2023-08-17T09:40:19;19.0;;;18.0;;
22673;SDS011;11504;43.334;21.918;2023-08-17T09:44:57;18.0;;;17.0;;
22673;SDS011;11504;43.334;21.918;2023-08-17T09:49:34;18.0;;;17.0;;
22673;SDS011;11504;43.334;21.918;2023-08-17T09:54:20;18.0;;;18.0;;
22673;SDS011;11504;43.334;21.918;2023-08-17T09:59:00;18.0;;;18.0;;
22673;SDS011;11504;43.334;21.918;2023-08-17T10:03:42;19.0;;;18.0;;
22673;SDS011;11504;43.334;21.918;2023-08-17T10:08:23;19.0;;;18.0;;
22673;SDS011;11504;43.334;21.918;2023-08-17T10:13:10;20.0;;;18.0;;
22673;SDS011;11504;43.334;21.918;2023-08-17T10:18:20;20.0;;;18.0;;
22673;SDS011;11504;43.334;21.918;2023-08-17T10:23:30;20.0;;;19.0;;
22673;SDS011;11504;43.334;21.918;2023-08-17T10:28:12;20.0;;;19.0;;
22673;SDS011;11504;43.334;21.918;2023-08-17T10:32:52;20.0;;;19.0;;
22673;SDS011;11504;43.334;21.918;2023-08-17T10:37:31;19.0;;;18.0;;
22673;SDS011;11504;43.334;21.918;2023-08-17T10:42:10;19.0;;;18.0;;
22673;SDS011;11504;43.334;21.918;2023-08-17T10:46:50;18.0;;;17.0;;
22673;SDS011;11504;43.334;21.918;2023-08-17T10:51:27;18.0;;;17.0;;
22673;SDS011;11504;43.334;21.918;2023-08-17T10:56:07;18.0;;;17.0;;
22673;SDS011;11504;43.334;21.918;2023-08-17T11:00:55;18.0;;;17.0;;
22673;SDS011;11504;43.334;21.918;2023-08-17T11:05:41;18.0;;;17.0;;
22673;SDS011;11504;43.334;21.918;2023-08-17T11:10:29;18.0;;;17.0;;
22673;SDS011;11504;43.334;21.918;2023-08-17T11:15:08;19.0;;;18.0;;
22673;SDS011;11504;43.334;21.918;2023-08-17T11:19:45;19.0;;;18.0;;
22673;SDS011;11504;43.334;21.918;2023-08-17T11:24:22;20.0;;;19.0;;
22673;SDS011;11504;43.334;21.918;2023-08-17T11:29:00;20.0;;;19.0;;
22673;SDS011;11504;43.334;21.918;2023-08-17T11:33:39;20.0;;;19.0;;
22673;SDS011;11504;43.334;21.918;2023-08-17T11:38:16;20.0;;;19.0;;
22673;SDS011;11504;43.334;21.918;2023-08-17T11:42:53;20.0;;;19.0;;
22673;SDS011;11504;43.334;21.918;2023-08-17T11:47:31;20.0;;;19.0;;
22673;SDS011;11504;43.334;21.918;2023-08-17T11:52:09;20.0;;;19.0;;
22673;SDS011;11504;43.334;21.918;2023-08-17T11:56:46;20.0;;;19.0;;
22673;SDS011;11504;43.334;21.918;2023-08-17T12:01:23;20.0;;;19.0;;
22673;SDS011;11504;43.334;21.918;2023-08-17T12:06:00;20.0;;;19.0;;
22673;SDS011;11504;43.334;21.918;2023-08-17T12:10:38;20.0;;;19.0;;
22673;SDS011;11504;43.334;21.918;2023-08-17T12:15:16;21.0;;;20.0;;
22673;SDS011;11504;43.334;21.918;2023-08-17T12:19:55;21.0;;;20.0;;
22673;SDS011;11504;43.334;21.918;2023-08-17T12:24:35;22.0;;;20.0;;
22673;SDS011;11504;43.334;21.918;2023-08-17T12:29:13;22.0;;;20.0;;
22673;SDS011;11504;43.334;21.918;2023-08-17T12:33:50;22.0;;;21.0;;
22673;SDS011;11504;43.334;21.918;2023-08-17T12:38:27;22.0;;;21.0;;
22673;SDS011;11504;43.334;21.918;2023-08-17T12:43:03;22.0;;;21.0;;
22673;SDS011;11504;43.334;21.918;2023-08-17T12:47:40;23.0;;;22.0;;
22673;SDS011;11504;43.334;21.918;2023-08-17T12:52:17;23.0;;;22.0;;
22673;SDS011;11504;43.334;21.918;2023-08-17T12:56:54;23.0;;;22.0;;
22673;SDS011;11504;43.334;21.918;2023-08-17T13:01:30;23.0;;;22.0;;
22673;SDS011;11504;43.334;21.918;2023-08-17T13:06:07;23.0;;;22.0;;
22673;SDS011;11504;43.334;21.918;2023-08-17T13:10:44;23.0;;;22.0;;
22673;SDS011;11504;43.334;21.918;2023-08-17T13:15:20;23.0;;;22.0;;
22673;SDS011;11504;43.334;21.918;2023-08-17T13:19:58;23.0;;;22.0;;
22673;SDS011;11504;43.334;21.918;2023-08-17T13:24:34;23.0;;;22.0;;
22673;SDS011;11504;43.334;21.918;2023-08-17T13:29:11;23.0;;;22.0;;
22673;SDS011;11504;43.334;21.918;2023-08-17T13:33:47;22.0;;;22.0;;
22673;SDS011;11504;43.334;21.918;2023-08-17T13:38:23;22.0;;;22.0;;
22673;SDS011;11504;43.334;21.918;2023-08-17T13:43:00;22.0;;;22.0;;
22673;SDS011;11504;43.334;21.918;2023-08-17T13:47:36;22.0;;;21.0;;
22673;SDS011;11504;43.334;21.918;2023-08-17T13:52:12;22.0;;;21.0;;
22673;SDS011;11504;43.334;21.918;2023-08-17T13:56:49;23.0;;;22.0;;
22673;SDS011;11504;43.334;21.918;2023-08-17T14:01:27;23.0;;;22.0;;
22673;SDS011;11504;43.334;21.918;2023-08-17T14:06:03;24.0;;;23.0;;
22673;SDS011;11504;43.334;21.918;2023-08-17T14:10:40;24.0;;;23.0;;
22673;SDS011;11504;43.334;21.918;2023-08-17T14:15:16;24.0;;;23.0;;
22673;SDS011;11504;43.334;21.918;2023-08-17T14:19:53;24.0;;;23.0;;
22673;SDS011;11504;43.334;21.918;2023-08-17T14:24:30;24.0;;;23.0;;
22673;SDS011;11504;43.334;21.918;2023-08-17T14:29:06;24.0;;;23.0;;
22673;SDS011;11504;43.334;21.918;2023-08-17T14:33:44;25.0;;;24.0;;
22673;SDS011;11504;43.334;21.918;2023-08-17T14:38:22;25.0;;;24.0;;
22673;SDS011;11504;43.334;21.918;2023-08-17T14:42:59;25.0;;;24.0;;
22673;SDS011;11504;43.334;21.918;2023-08-17T14:47:36;26.0;;;25.0;;
22673;SDS011;11504;43.334;21.918;2023-08-17T14:52:13;26.0;;;25.0;;
22673;SDS011;11504;43.334;21.918;2023-08-17T14:56:49;24.0;;;23.0;;
22673;SDS011;11504;43.334;21.918;2023-08-17T15:01:26;24.0;;;23.0;;
22673;SDS011;11504;43.334;21.918;2023-08-17T15:06:02;22.0;;;21.0;;
22673;SDS011;11504;43.334;21.918;2023-08-17T15:10:40;22.0;;;21.0;;
22673;SDS011;11504;43.334;21.918;2023-08-17T15:15:17;24.0;;;22.0;;
22673;SDS011;11504;43.334;21.918;2023-08-17T15:19:54;24.0;;;22.0;;
22673;SDS011;11504;43.334;21.918;2023-08-17T15:24:31;25.0;;;24.0;;
22673;SDS011;11504;43.334;21.918;2023-08-17T15:29:08;25.0;;;24.0;;
22673;SDS011;11504;43.334;21.918;2023-08-17T15:33:45;28.0;;;27.0;;
22673;SDS011;11504;43.334;21.918;2023-08-17T15:38:22;28.0;;;27.0;;
22673;SDS011;11504;43.334;21.918;2023-08-17T15:43:00;28.0;;;27.0;;
22673;SDS011;11504;43.334;21.918;2023-08-17T15:47:36;31.0;;;30.0;;
22673;SDS011;11504;43.334;21.918;2023-08-17T15:52:14;31.0;;;30.0;;
22673;SDS011;11504;43.334;21.918;2023-08-17T15:56:51;28.0;;;27.0;;
22673;SDS011;11504;43.334;21.918;2023-08-17T16:01:28;28.0;;;27.0;;
22673;SDS011;11504;43.334;21.918;2023-08-17T16:06:05;25.0;;;24.0;;
22673;SDS011;11504;43.334;21.918;2023-08-17T16:10:42;25.0;;;24.0;;
22673;SDS011;11504;43.334;21.918;2023-08-17T16:15:19;26.0;;;24.0;;
22673;SDS011;11504;43.334;21.918;2023-08-17T16:19:55;26.0;;;24.0;;
22673;SDS011;11504;43.334;21.918;2023-08-17T16:24:32;26.0;;;25.0;;
22673;SDS011;11504;43.334;21.918;2023-08-17T16:29:08;26.0;;;25.0;;
22673;SDS011;11504;43.334;21.918;2023-08-17T16:33:45;25.0;;;24.0;;
22673;SDS011;11504;43.334;21.918;2023-08-17T16:38:22;25.0;;;24.0;;
22673;SDS011;11504;43.334;21.918;2023-08-17T16:42:59;25.0;;;24.0;;
22673;SDS011;11504;43.334;21.918;2023-08-17T16:47:35;24.0;;;23.0;;
22673;SDS011;11504;43.334;21.918;2023-08-17T16:52:11;24.0;;;23.0;;
22673;SDS011;11504;43.334;21.918;2023-08-17T16:56:48;25.0;;;24.0;;
22673;SDS011;11504;43.334;21.918;2023-08-17T17:01:24;25.0;;;24.0;;
22673;SDS011;11504;43.334;21.918;2023-08-17T17:06:01;26.0;;;25.0;;
22673;SDS011;11504;43.334;21.918;2023-08-17T17:10:38;26.0;;;25.0;;
22673;SDS011;11504;43.334;21.918;2023-08-17T17:15:15;29.0;;;28.0;;
22673;SDS011;11504;43.334;21.918;2023-08-17T17:19:52;29.0;;;28.0;;
22673;SDS011;11504;43.334;21.918;2023-08-17T17:24:29;32.0;;;31.0;;
22673;SDS011;11504;43.334;21.918;2023-08-17T17:29:06;32.0;;;31.0;;
22673;SDS011;11504;43.334;21.918;2023-08-17T17:33:43;30.0;;;28.0;;
22673;SDS011;11504;43.334;21.918;2023-08-17T17:38:19;30.0;;;28.0;;
22673;SDS011;11504;43.334;21.918;2023-08-17T17:42:56;30.0;;;28.0;;
22673;SDS011;11504;43.334;21.918;2023-08-17T17:47:32;27.0;;;26.0;;
22673;SDS011;11504;43.334;21.918;2023-08-17T17:52:08;27.0;;;26.0;;
22673;SDS011;11504;43.334;21.918;2023-08-17T17:56:45;26.0;;;24.0;;
22673;SDS011;11504;43.334;21.918;2023-08-17T18:01:22;26.0;;;24.0;;
22673;SDS011;11504;43.334;21.918;2023-08-17T18:05:59;24.0;;;23.0;;
22673;SDS011;11504;43.334;21.918;2023-08-17T18:10:35;24.0;;;23.0;;
22673;SDS011;11504;43.334;21.918;2023-08-17T18:15:14;24.0;;;24.0;;
22673;SDS011;11504;43.334;21.918;2023-08-17T18:19:51;24.0;;;24.0;;
22673;SDS011;11504;43.334;21.918;2023-08-17T18:24:27;25.0;;;24.0;;
22673;SDS011;11504;43.334;21.918;2023-08-17T18:29:04;25.0;;;24.0;;
22673;SDS011;11504;43.334;21.918;2023-08-17T18:33:40;34.0;;;32.0;;
22673;SDS011;11504;43.334;21.918;2023-08-17T18:38:16;34.0;;;32.0;;
22673;SDS011;11504;43.334;21.918;2023-08-17T18:42:53;34.0;;;32.0;;
22673;SDS011;11504;43.334;21.918;2023-08-17T18:47:29;43.0;;;41.0;;
22673;SDS011;11504;43.334;21.918;2023-08-17T18:52:06;43.0;;;41.0;;
22673;SDS011;11504;43.334;21.918;2023-08-17T18:56:42;38.0;;;36.0;;
22673;SDS011;11504;43.334;21.918;2023-08-17T19:01:19;38.0;;;36.0;;
22673;SDS011;11504;43.334;21.918;2023-08-17T19:05:55;32.0;;;31.0;;
22673;SDS011;11504;43.334;21.918;2023-08-17T19:10:32;32.0;;;31.0;;
22673;SDS011;11504;43.334;21.918;2023-08-17T19:15:09;32.0;;;32.0;;
22673;SDS011;11504;43.334;21.918;2023-08-17T19:19:46;32.0;;;32.0;;
22673;SDS011;11504;43.334;21.918;2023-08-17T19:24:23;33.0;;;32.0;;
22673;SDS011;11504;43.334;21.918;2023-08-17T19:28:59;33.0;;;32.0;;
22673;SDS011;11504;43.334;21.918;2023-08-17T19:33:36;33.0;;;32.0;;
22673;SDS011;11504;43.334;21.918;2023-08-17T19:38:12;42.0;;;40.0;;
22673;SDS011;11504;43.334;21.918;2023-08-17T19:42:50;42.0;;;40.0;;
22673;SDS011;11504;43.334;21.918;2023-08-17T19:47:26;50.0;;;48.0;;
22673;SDS011;11504;43.334;21.918;2023-08-17T19:52:03;50.0;;;48.0;;
22673;SDS011;11504;43.334;21.918;2023-08-17T19:56:40;46.0;;;44.0;;
22673;SDS011;11504;43.334;21.918;2023-08-17T20:01:17;46.0;;;44.0;;
22673;SDS011;11504;43.334;21.918;2023-08-17T20:05:55;43.0;;;41.0;;
22673;SDS011;11504;43.334;21.918;2023-08-17T20:10:32;43.0;;;41.0;;
22673;SDS011;11504;43.334;21.918;2023-08-17T20:15:09;38.0;;;36.0;;
22673;SDS011;11504;43.334;21.918;2023-08-17T20:19:47;38.0;;;36.0;;
22673;SDS011;11504;43.334;21.918;2023-08-17T20:24:23;34.0;;;32.0;;
22673;SDS011;11504;43.334;21.918;2023-08-17T20:29:00;34.0;;;32.0;;
22673;SDS011;11504;43.334;21.918;2023-08-17T20:33:36;34.0;;;32.0;;
22673;SDS011;11504;43.334;21.918;2023-08-17T20:38:12;31.0;;;29.0;;
22673;SDS011;11504;43.334;21.918;2023-08-17T20:42:49;31.0;;;29.0;;
22673;SDS011;11504;43.334;21.918;2023-08-17T20:47:25;28.0;;;26.0;;
22673;SDS011;11504;43.334;21.918;2023-08-17T20:52:01;28.0;;;26.0;;
22673;SDS011;11504;43.334;21.918;2023-08-17T20:56:39;28.0;;;26.0;;
22673;SDS011;11504;43.334;21.918;2023-08-17T21:01:15;28.0;;;26.0;;
22673;SDS011;11504;43.334;21.918;2023-08-17T21:05:52;28.0;;;27.0;;
22673;SDS011;11504;43.334;21.918;2023-08-17T21:10:28;28.0;;;27.0;;
22673;SDS011;11504;43.334;21.918;2023-08-17T21:15:05;27.0;;;26.0;;
22673;SDS011;11504;43.334;21.918;2023-08-17T21:19:45;27.0;;;26.0;;
22673;SDS011;11504;43.334;21.918;2023-08-17T21:24:22;26.0;;;25.0;;
22673;SDS011;11504;43.334;21.918;2023-08-17T21:28:59;26.0;;;25.0;;
22673;SDS011;11504;43.334;21.918;2023-08-17T21:33:36;26.0;;;25.0;;
22673;SDS011;11504;43.334;21.918;2023-08-17T21:38:13;26.0;;;24.0;;
22673;SDS011;11504;43.334;21.918;2023-08-17T21:42:49;26.0;;;24.0;;
22673;SDS011;11504;43.334;21.918;2023-08-17T21:47:25;25.0;;;23.0;;
22673;SDS011;11504;43.334;21.918;2023-08-17T21:52:02;25.0;;;23.0;;
22673;SDS011;11504;43.334;21.918;2023-08-17T21:56:39;26.0;;;24.0;;
22673;SDS011;11504;43.334;21.918;2023-08-17T22:01:17;26.0;;;24.0;;
22673;SDS011;11504;43.334;21.918;2023-08-17T22:05:53;27.0;;;26.0;;
22673;SDS011;11504;43.334;21.918;2023-08-17T22:10:30;27.0;;;26.0;;
22673;SDS011;11504;43.334;21.918;2023-08-17T22:15:07;25.0;;;24.0;;
22673;SDS011;11504;43.334;21.918;2023-08-17T22:19:44;25.0;;;24.0;;
22673;SDS011;11504;43.334;21.918;2023-08-17T22:24:21;23.0;;;22.0;;
22673;SDS011;11504;43.334;21.918;2023-08-17T22:28:58;23.0;;;22.0;;
22673;SDS011;11504;43.334;21.918;2023-08-17T22:33:36;23.0;;;22.0;;
22673;SDS011;11504;43.334;21.918;2023-08-17T22:38:12;24.0;;;22.0;;
22673;SDS011;11504;43.334;21.918;2023-08-17T22:42:49;24.0;;;22.0;;
22673;SDS011;11504;43.334;21.918;2023-08-17T22:47:26;24.0;;;23.0;;
22673;SDS011;11504;43.334;21.918;2023-08-17T22:52:03;24.0;;;23.0;;
22673;SDS011;11504;43.334;21.918;2023-08-17T22:56:40;24.0;;;22.0;;
22673;SDS011;11504;43.334;21.918;2023-08-17T23:01:16;24.0;;;22.0;;
22673;SDS011;11504;43.334;21.918;2023-08-17T23:05:53;23.0;;;21.0;;
22673;SDS011;11504;43.334;21.918;2023-08-17T23:10:30;23.0;;;21.0;;
22673;SDS011;11504;43.334;21.918;2023-08-17T23:15:06;23.0;;;22.0;;
22673;SDS011;11504;43.334;21.918;2023-08-17T23:19:45;23.0;;;22.0;;
22673;SDS011;11504;43.334;21.918;2023-08-17T23:24:22;23.0;;;22.0;;
22673;SDS011;11504;43.334;21.918;2023-08-17T23:28:58;23.0;;;22.0;;
22673;SDS011;11504;43.334;21.918;2023-08-17T23:33:35;23.0;;;22.0;;
22673;SDS011;11504;43.334;21.918;2023-08-17T23:38:11;23.0;;;22.0;;
22673;SDS011;11504;43.334;21.918;2023-08-17T23:42:48;23.0;;;22.0;;
22673;SDS011;11504;43.334;21.918;2023-08-17T23:47:24;23.0;;;22.0;;
22673;SDS011;11504;43.334;21.918;2023-08-17T23:52:00;23.0;;;22.0;;
22673;SDS011;11504;43.334;21.918;2023-08-17T23:56:38;24.0;;;22.0;;
